sensor_id;sensor_type;location;lat;lon;timestamp;P1;durP1;ratioP1;P2;durP2;ratioP2
51852;SDS011;37894;53.172;6.598;2023-07-31T00:00:26;9.35;;;4.97;;
51852;SDS011;37894;53.172;6.598;2023-07-31T00:02:52;7.22;;;4.82;;
51852;SDS011;37894;53.172;6.598;2023-07-31T00:05:19;7.50;;;4.85;;
51852;SDS011;37894;53.172;6.598;2023-07-31T00:07:45;10.07;;;4.32;;
51852;SDS011;37894;53.172;6.598;2023-07-31T00:10:10;8.80;;;4.85;;
51852;SDS011;37894;53.172;6.598;2023-07-31T00:12:37;6.93;;;4.22;;
51852;SDS011;37894;53.172;6.598;2023-07-31T00:15:03;7.18;;;4.75;;
51852;SDS011;37894;53.172;6.598;2023-07-31T00:17:29;7.07;;;4.70;;
51852;SDS011;37894;53.172;6.598;2023-07-31T00:19:55;7.53;;;4.68;;
51852;SDS011;37894;53.172;6.598;2023-07-31T00:22:21;8.85;;;4.70;;
51852;SDS011;37894;53.172;6.598;2023-07-31T00:24:46;8.40;;;5.10;;
51852;SDS011;37894;53.172;6.598;2023-07-31T00:27:12;7.32;;;4.65;;
51852;SDS011;37894;53.172;6.598;2023-07-31T00:29:38;6.68;;;5.03;;
51852;SDS011;37894;53.172;6.598;2023-07-31T00:32:03;6.65;;;4.47;;
51852;SDS011;37894;53.172;6.598;2023-07-31T00:34:29;8.32;;;4.80;;
51852;SDS011;37894;53.172;6.598;2023-07-31T00:36:55;6.68;;;4.65;;
51852;SDS011;37894;53.172;6.598;2023-07-31T00:39:21;7.90;;;4.40;;
51852;SDS011;37894;53.172;6.598;2023-07-31T00:41:46;7.80;;;5.00;;
51852;SDS011;37894;53.172;6.598;2023-07-31T00:44:12;7.82;;;4.75;;
51852;SDS011;37894;53.172;6.598;2023-07-31T00:46:38;7.72;;;5.18;;
51852;SDS011;37894;53.172;6.598;2023-07-31T00:49:03;7.93;;;5.25;;
51852;SDS011;37894;53.172;6.598;2023-07-31T00:51:30;7.47;;;5.53;;
51852;SDS011;37894;53.172;6.598;2023-07-31T00:53:56;8.88;;;5.70;;
51852;SDS011;37894;53.172;6.598;2023-07-31T00:56:23;6.80;;;5.10;;
51852;SDS011;37894;53.172;6.598;2023-07-31T00:58:50;9.98;;;6.07;;
51852;SDS011;37894;53.172;6.598;2023-07-31T01:01:16;10.55;;;6.40;;
51852;SDS011;37894;53.172;6.598;2023-07-31T01:03:41;11.57;;;7.40;;
51852;SDS011;37894;53.172;6.598;2023-07-31T01:08:54;11.85;;;7.00;;
51852;SDS011;37894;53.172;6.598;2023-07-31T01:11:23;10.68;;;6.88;;
51852;SDS011;37894;53.172;6.598;2023-07-31T01:13:55;10.88;;;6.57;;
51852;SDS011;37894;53.172;6.598;2023-07-31T01:16:21;8.70;;;6.35;;
51852;SDS011;37894;53.172;6.598;2023-07-31T01:18:47;10.00;;;6.90;;
51852;SDS011;37894;53.172;6.598;2023-07-31T01:23:50;9.10;;;6.20;;
51852;SDS011;37894;53.172;6.598;2023-07-31T01:26:28;10.38;;;6.28;;
51852;SDS011;37894;53.172;6.598;2023-07-31T01:31:33;7.80;;;5.70;;
51852;SDS011;37894;53.172;6.598;2023-07-31T01:34:01;8.80;;;5.13;;
51852;SDS011;37894;53.172;6.598;2023-07-31T01:36:28;6.82;;;4.68;;
51852;SDS011;37894;53.172;6.598;2023-07-31T01:38:59;7.72;;;4.70;;
51852;SDS011;37894;53.172;6.598;2023-07-31T01:41:26;7.30;;;4.90;;
51852;SDS011;37894;53.172;6.598;2023-07-31T01:43:51;7.18;;;4.60;;
51852;SDS011;37894;53.172;6.598;2023-07-31T01:46:17;6.33;;;3.93;;
51852;SDS011;37894;53.172;6.598;2023-07-31T01:48:43;8.27;;;4.30;;
51852;SDS011;37894;53.172;6.598;2023-07-31T01:51:08;6.53;;;3.50;;
51852;SDS011;37894;53.172;6.598;2023-07-31T01:53:34;6.40;;;4.20;;
51852;SDS011;37894;53.172;6.598;2023-07-31T01:56:00;5.75;;;3.50;;
51852;SDS011;37894;53.172;6.598;2023-07-31T01:58:25;4.72;;;3.00;;
51852;SDS011;37894;53.172;6.598;2023-07-31T02:00:51;4.43;;;3.05;;
51852;SDS011;37894;53.172;6.598;2023-07-31T02:03:17;5.00;;;2.70;;
51852;SDS011;37894;53.172;6.598;2023-07-31T02:05:46;3.87;;;2.50;;
51852;SDS011;37894;53.172;6.598;2023-07-31T02:08:12;5.43;;;2.77;;
51852;SDS011;37894;53.172;6.598;2023-07-31T02:10:38;5.65;;;2.45;;
51852;SDS011;37894;53.172;6.598;2023-07-31T02:13:04;3.28;;;1.90;;
51852;SDS011;37894;53.172;6.598;2023-07-31T02:15:30;3.42;;;1.70;;
51852;SDS011;37894;53.172;6.598;2023-07-31T02:17:56;8.93;;;2.30;;
51852;SDS011;37894;53.172;6.598;2023-07-31T02:20:22;4.57;;;1.95;;
51852;SDS011;37894;53.172;6.598;2023-07-31T02:22:47;4.85;;;1.63;;
51852;SDS011;37894;53.172;6.598;2023-07-31T02:25:13;3.83;;;2.30;;
51852;SDS011;37894;53.172;6.598;2023-07-31T02:27:39;3.80;;;2.22;;
51852;SDS011;37894;53.172;6.598;2023-07-31T02:30:05;4.25;;;1.95;;
51852;SDS011;37894;53.172;6.598;2023-07-31T02:32:31;4.07;;;2.22;;
51852;SDS011;37894;53.172;6.598;2023-07-31T02:34:57;4.55;;;2.10;;
51852;SDS011;37894;53.172;6.598;2023-07-31T02:37:22;3.20;;;1.70;;
51852;SDS011;37894;53.172;6.598;2023-07-31T02:39:48;3.47;;;1.73;;
51852;SDS011;37894;53.172;6.598;2023-07-31T02:42:14;3.42;;;1.77;;
51852;SDS011;37894;53.172;6.598;2023-07-31T02:44:40;3.58;;;1.70;;
51852;SDS011;37894;53.172;6.598;2023-07-31T02:47:05;3.72;;;1.70;;
51852;SDS011;37894;53.172;6.598;2023-07-31T02:49:31;4.90;;;1.90;;
51852;SDS011;37894;53.172;6.598;2023-07-31T02:51:57;5.95;;;1.90;;
51852;SDS011;37894;53.172;6.598;2023-07-31T02:54:22;4.72;;;1.63;;
51852;SDS011;37894;53.172;6.598;2023-07-31T02:56:48;4.07;;;1.70;;
51852;SDS011;37894;53.172;6.598;2023-07-31T02:59:14;3.42;;;1.60;;
51852;SDS011;37894;53.172;6.598;2023-07-31T03:01:40;3.15;;;1.65;;
51852;SDS011;37894;53.172;6.598;2023-07-31T03:04:05;5.35;;;1.80;;
51852;SDS011;37894;53.172;6.598;2023-07-31T03:06:32;2.90;;;1.80;;
51852;SDS011;37894;53.172;6.598;2023-07-31T03:08:57;3.38;;;1.60;;
51852;SDS011;37894;53.172;6.598;2023-07-31T03:11:23;3.58;;;1.88;;
51852;SDS011;37894;53.172;6.598;2023-07-31T03:13:48;4.15;;;1.90;;
51852;SDS011;37894;53.172;6.598;2023-07-31T03:16:14;3.47;;;1.98;;
51852;SDS011;37894;53.172;6.598;2023-07-31T03:18:40;3.97;;;1.83;;
51852;SDS011;37894;53.172;6.598;2023-07-31T03:21:06;5.68;;;1.90;;
51852;SDS011;37894;53.172;6.598;2023-07-31T03:23:31;3.63;;;1.70;;
51852;SDS011;37894;53.172;6.598;2023-07-31T03:26:01;4.70;;;1.90;;
51852;SDS011;37894;53.172;6.598;2023-07-31T03:28:32;4.03;;;1.95;;
51852;SDS011;37894;53.172;6.598;2023-07-31T03:30:58;3.20;;;1.60;;
51852;SDS011;37894;53.172;6.598;2023-07-31T03:33:25;3.95;;;1.55;;
51852;SDS011;37894;53.172;6.598;2023-07-31T03:35:50;3.30;;;1.67;;
51852;SDS011;37894;53.172;6.598;2023-07-31T03:38:16;5.18;;;2.03;;
51852;SDS011;37894;53.172;6.598;2023-07-31T03:40:42;4.13;;;1.60;;
51852;SDS011;37894;53.172;6.598;2023-07-31T03:43:08;4.53;;;1.50;;
51852;SDS011;37894;53.172;6.598;2023-07-31T03:45:34;3.70;;;1.85;;
51852;SDS011;37894;53.172;6.598;2023-07-31T03:48:00;4.22;;;1.88;;
51852;SDS011;37894;53.172;6.598;2023-07-31T03:50:26;4.78;;;1.73;;
51852;SDS011;37894;53.172;6.598;2023-07-31T03:52:52;4.22;;;2.13;;
51852;SDS011;37894;53.172;6.598;2023-07-31T03:55:18;3.30;;;1.70;;
51852;SDS011;37894;53.172;6.598;2023-07-31T03:57:43;3.33;;;1.58;;
51852;SDS011;37894;53.172;6.598;2023-07-31T04:00:09;5.38;;;1.60;;
51852;SDS011;37894;53.172;6.598;2023-07-31T04:02:35;4.35;;;1.70;;
51852;SDS011;37894;53.172;6.598;2023-07-31T04:05:01;4.32;;;1.63;;
51852;SDS011;37894;53.172;6.598;2023-07-31T04:07:27;5.00;;;1.70;;
51852;SDS011;37894;53.172;6.598;2023-07-31T04:09:52;4.60;;;1.50;;
51852;SDS011;37894;53.172;6.598;2023-07-31T04:12:18;4.05;;;1.50;;
51852;SDS011;37894;53.172;6.598;2023-07-31T04:14:44;3.90;;;1.85;;
51852;SDS011;37894;53.172;6.598;2023-07-31T04:17:09;4.25;;;1.77;;
51852;SDS011;37894;53.172;6.598;2023-07-31T04:19:35;4.03;;;1.50;;
51852;SDS011;37894;53.172;6.598;2023-07-31T04:22:01;4.13;;;1.80;;
51852;SDS011;37894;53.172;6.598;2023-07-31T04:24:27;6.50;;;1.70;;
51852;SDS011;37894;53.172;6.598;2023-07-31T04:26:52;4.80;;;2.10;;
51852;SDS011;37894;53.172;6.598;2023-07-31T04:29:19;4.13;;;1.60;;
51852;SDS011;37894;53.172;6.598;2023-07-31T04:31:45;5.53;;;1.70;;
51852;SDS011;37894;53.172;6.598;2023-07-31T04:34:11;4.20;;;1.70;;
51852;SDS011;37894;53.172;6.598;2023-07-31T04:36:37;3.83;;;1.48;;
51852;SDS011;37894;53.172;6.598;2023-07-31T04:39:03;4.93;;;1.60;;
51852;SDS011;37894;53.172;6.598;2023-07-31T04:41:29;3.38;;;1.60;;
51852;SDS011;37894;53.172;6.598;2023-07-31T04:43:54;4.15;;;1.40;;
51852;SDS011;37894;53.172;6.598;2023-07-31T04:46:20;5.75;;;1.67;;
51852;SDS011;37894;53.172;6.598;2023-07-31T04:48:46;5.07;;;1.27;;
51852;SDS011;37894;53.172;6.598;2023-07-31T04:51:11;2.85;;;1.50;;
51852;SDS011;37894;53.172;6.598;2023-07-31T04:53:37;3.03;;;1.67;;
51852;SDS011;37894;53.172;6.598;2023-07-31T04:56:03;3.28;;;1.45;;
51852;SDS011;37894;53.172;6.598;2023-07-31T04:58:29;5.57;;;1.70;;
51852;SDS011;37894;53.172;6.598;2023-07-31T05:00:54;3.55;;;1.50;;
51852;SDS011;37894;53.172;6.598;2023-07-31T05:03:20;4.28;;;1.40;;
51852;SDS011;37894;53.172;6.598;2023-07-31T05:05:46;9.88;;;1.85;;
51852;SDS011;37894;53.172;6.598;2023-07-31T05:08:12;10.57;;;1.40;;
51852;SDS011;37894;53.172;6.598;2023-07-31T05:10:37;2.42;;;1.20;;
51852;SDS011;37894;53.172;6.598;2023-07-31T05:13:03;4.82;;;1.30;;
51852;SDS011;37894;53.172;6.598;2023-07-31T05:15:29;4.53;;;1.20;;
51852;SDS011;37894;53.172;6.598;2023-07-31T05:17:55;5.25;;;1.30;;
51852;SDS011;37894;53.172;6.598;2023-07-31T05:20:20;3.88;;;1.40;;
51852;SDS011;37894;53.172;6.598;2023-07-31T05:22:46;4.45;;;1.52;;
51852;SDS011;37894;53.172;6.598;2023-07-31T05:25:12;2.70;;;1.30;;
51852;SDS011;37894;53.172;6.598;2023-07-31T05:27:38;3.60;;;1.63;;
51852;SDS011;37894;53.172;6.598;2023-07-31T05:30:04;2.50;;;1.25;;
51852;SDS011;37894;53.172;6.598;2023-07-31T05:32:30;4.80;;;1.98;;
51852;SDS011;37894;53.172;6.598;2023-07-31T05:34:56;5.05;;;1.88;;
51852;SDS011;37894;53.172;6.598;2023-07-31T05:37:22;3.25;;;1.65;;
51852;SDS011;37894;53.172;6.598;2023-07-31T05:39:48;4.05;;;1.90;;
51852;SDS011;37894;53.172;6.598;2023-07-31T05:42:14;6.68;;;2.03;;
51852;SDS011;37894;53.172;6.598;2023-07-31T05:44:40;4.80;;;1.90;;
51852;SDS011;37894;53.172;6.598;2023-07-31T05:47:05;6.90;;;1.98;;
51852;SDS011;37894;53.172;6.598;2023-07-31T05:49:31;6.50;;;2.13;;
51852;SDS011;37894;53.172;6.598;2023-07-31T05:51:57;4.18;;;1.98;;
51852;SDS011;37894;53.172;6.598;2023-07-31T05:54:23;7.20;;;2.30;;
51852;SDS011;37894;53.172;6.598;2023-07-31T05:56:49;6.40;;;2.08;;
51852;SDS011;37894;53.172;6.598;2023-07-31T05:59:15;6.20;;;2.40;;
51852;SDS011;37894;53.172;6.598;2023-07-31T06:01:41;7.10;;;2.38;;
51852;SDS011;37894;53.172;6.598;2023-07-31T06:04:07;6.65;;;2.70;;
51852;SDS011;37894;53.172;6.598;2023-07-31T06:06:33;5.90;;;2.10;;
51852;SDS011;37894;53.172;6.598;2023-07-31T06:08:59;7.18;;;2.53;;
51852;SDS011;37894;53.172;6.598;2023-07-31T06:11:25;5.82;;;2.58;;
51852;SDS011;37894;53.172;6.598;2023-07-31T06:13:51;6.07;;;2.70;;
51852;SDS011;37894;53.172;6.598;2023-07-31T06:16:16;6.30;;;2.47;;
51852;SDS011;37894;53.172;6.598;2023-07-31T06:18:42;10.02;;;2.90;;
51852;SDS011;37894;53.172;6.598;2023-07-31T06:21:08;10.88;;;3.50;;
51852;SDS011;37894;53.172;6.598;2023-07-31T06:23:35;11.57;;;3.53;;
51852;SDS011;37894;53.172;6.598;2023-07-31T06:26:01;13.73;;;4.20;;
51852;SDS011;37894;53.172;6.598;2023-07-31T06:28:27;13.45;;;4.30;;
51852;SDS011;37894;53.172;6.598;2023-07-31T06:30:57;14.20;;;4.80;;
51852;SDS011;37894;53.172;6.598;2023-07-31T06:33:23;18.55;;;5.78;;
51852;SDS011;37894;53.172;6.598;2023-07-31T06:35:49;17.33;;;6.32;;
51852;SDS011;37894;53.172;6.598;2023-07-31T06:38:15;25.88;;;6.97;;
51852;SDS011;37894;53.172;6.598;2023-07-31T06:40:44;22.42;;;8.93;;
51852;SDS011;37894;53.172;6.598;2023-07-31T06:43:09;27.48;;;9.43;;
51852;SDS011;37894;53.172;6.598;2023-07-31T06:45:35;39.40;;;9.02;;
51852;SDS011;37894;53.172;6.598;2023-07-31T06:48:02;26.40;;;7.72;;
51852;SDS011;37894;53.172;6.598;2023-07-31T06:50:29;24.90;;;8.60;;
51852;SDS011;37894;53.172;6.598;2023-07-31T06:52:55;27.85;;;8.90;;
51852;SDS011;37894;53.172;6.598;2023-07-31T06:55:21;32.25;;;9.48;;
51852;SDS011;37894;53.172;6.598;2023-07-31T06:57:48;27.85;;;8.35;;
51852;SDS011;37894;53.172;6.598;2023-07-31T07:00:15;24.42;;;8.70;;
51852;SDS011;37894;53.172;6.598;2023-07-31T07:02:41;33.38;;;8.02;;
51852;SDS011;37894;53.172;6.598;2023-07-31T07:05:07;25.27;;;7.82;;
51852;SDS011;37894;53.172;6.598;2023-07-31T07:07:33;28.98;;;8.95;;
51852;SDS011;37894;53.172;6.598;2023-07-31T07:09:59;24.02;;;8.32;;
51852;SDS011;37894;53.172;6.598;2023-07-31T07:12:25;28.52;;;7.88;;
51852;SDS011;37894;53.172;6.598;2023-07-31T07:14:54;27.23;;;7.90;;
51852;SDS011;37894;53.172;6.598;2023-07-31T07:17:20;38.85;;;9.63;;
51852;SDS011;37894;53.172;6.598;2023-07-31T07:19:45;27.92;;;8.88;;
51852;SDS011;37894;53.172;6.598;2023-07-31T07:22:13;24.58;;;9.20;;
51852;SDS011;37894;53.172;6.598;2023-07-31T07:24:39;25.38;;;9.27;;
51852;SDS011;37894;53.172;6.598;2023-07-31T07:27:04;31.48;;;9.68;;
51852;SDS011;37894;53.172;6.598;2023-07-31T07:29:31;27.92;;;8.50;;
51852;SDS011;37894;53.172;6.598;2023-07-31T07:31:56;33.38;;;8.95;;
51852;SDS011;37894;53.172;6.598;2023-07-31T07:34:23;23.65;;;8.52;;
51852;SDS011;37894;53.172;6.598;2023-07-31T07:36:51;27.83;;;8.00;;
51852;SDS011;37894;53.172;6.598;2023-07-31T07:39:16;19.27;;;6.20;;
51852;SDS011;37894;53.172;6.598;2023-07-31T07:41:42;21.00;;;5.25;;
51852;SDS011;37894;53.172;6.598;2023-07-31T07:44:08;14.60;;;4.93;;
51852;SDS011;37894;53.172;6.598;2023-07-31T07:46:33;9.73;;;3.97;;
51852;SDS011;37894;53.172;6.598;2023-07-31T07:48:59;7.90;;;3.40;;
51852;SDS011;37894;53.172;6.598;2023-07-31T07:51:25;9.68;;;3.40;;
51852;SDS011;37894;53.172;6.598;2023-07-31T07:53:50;7.38;;;3.35;;
51852;SDS011;37894;53.172;6.598;2023-07-31T07:56:16;10.10;;;3.45;;
51852;SDS011;37894;53.172;6.598;2023-07-31T07:58:42;8.55;;;2.50;;
51852;SDS011;37894;53.172;6.598;2023-07-31T08:01:08;9.23;;;2.88;;
51852;SDS011;37894;53.172;6.598;2023-07-31T08:03:33;13.18;;;3.50;;
51852;SDS011;37894;53.172;6.598;2023-07-31T08:05:59;9.57;;;2.95;;
51852;SDS011;37894;53.172;6.598;2023-07-31T08:08:26;7.32;;;3.05;;
51852;SDS011;37894;53.172;6.598;2023-07-31T08:10:52;6.82;;;2.42;;
51852;SDS011;37894;53.172;6.598;2023-07-31T08:13:18;6.20;;;2.70;;
51852;SDS011;37894;53.172;6.598;2023-07-31T08:15:44;5.95;;;2.50;;
51852;SDS011;37894;53.172;6.598;2023-07-31T08:18:10;8.82;;;3.17;;
51852;SDS011;37894;53.172;6.598;2023-07-31T08:20:36;5.88;;;2.60;;
51852;SDS011;37894;53.172;6.598;2023-07-31T08:23:02;5.55;;;2.50;;
51852;SDS011;37894;53.172;6.598;2023-07-31T08:25:29;6.05;;;2.40;;
51852;SDS011;37894;53.172;6.598;2023-07-31T08:27:55;6.40;;;2.38;;
51852;SDS011;37894;53.172;6.598;2023-07-31T08:30:21;5.68;;;2.20;;
51852;SDS011;37894;53.172;6.598;2023-07-31T08:32:47;4.97;;;2.10;;
51852;SDS011;37894;53.172;6.598;2023-07-31T08:35:12;6.20;;;2.40;;
51852;SDS011;37894;53.172;6.598;2023-07-31T08:37:38;5.63;;;2.00;;
51852;SDS011;37894;53.172;6.598;2023-07-31T08:40:04;4.90;;;1.60;;
51852;SDS011;37894;53.172;6.598;2023-07-31T08:42:31;3.50;;;1.77;;
51852;SDS011;37894;53.172;6.598;2023-07-31T08:44:57;3.40;;;1.88;;
51852;SDS011;37894;53.172;6.598;2023-07-31T08:47:25;3.50;;;1.60;;
51852;SDS011;37894;53.172;6.598;2023-07-31T08:49:52;3.05;;;1.75;;
51852;SDS011;37894;53.172;6.598;2023-07-31T08:52:19;4.10;;;1.67;;
51852;SDS011;37894;53.172;6.598;2023-07-31T08:54:45;5.03;;;1.50;;
51852;SDS011;37894;53.172;6.598;2023-07-31T08:57:11;4.88;;;1.90;;
51852;SDS011;37894;53.172;6.598;2023-07-31T08:59:37;4.43;;;1.98;;
51852;SDS011;37894;53.172;6.598;2023-07-31T09:02:07;3.55;;;1.67;;
51852;SDS011;37894;53.172;6.598;2023-07-31T09:04:34;3.50;;;1.73;;
51852;SDS011;37894;53.172;6.598;2023-07-31T09:07:00;6.95;;;1.70;;
51852;SDS011;37894;53.172;6.598;2023-07-31T09:09:29;3.28;;;1.40;;
51852;SDS011;37894;53.172;6.598;2023-07-31T09:11:57;5.72;;;1.58;;
51852;SDS011;37894;53.172;6.598;2023-07-31T09:14:24;4.82;;;1.90;;
51852;SDS011;37894;53.172;6.598;2023-07-31T09:16:58;3.65;;;1.70;;
51852;SDS011;37894;53.172;6.598;2023-07-31T09:19:34;3.58;;;1.55;;
51852;SDS011;37894;53.172;6.598;2023-07-31T09:22:04;3.53;;;1.58;;
51852;SDS011;37894;53.172;6.598;2023-07-31T09:24:32;3.03;;;1.80;;
51852;SDS011;37894;53.172;6.598;2023-07-31T09:27:00;4.78;;;1.90;;
51852;SDS011;37894;53.172;6.598;2023-07-31T09:29:27;4.68;;;2.10;;
51852;SDS011;37894;53.172;6.598;2023-07-31T09:31:54;3.25;;;1.80;;
51852;SDS011;37894;53.172;6.598;2023-07-31T09:34:21;2.97;;;1.27;;
51852;SDS011;37894;53.172;6.598;2023-07-31T09:37:03;4.78;;;1.70;;
51852;SDS011;37894;53.172;6.598;2023-07-31T09:39:30;3.35;;;1.55;;
51852;SDS011;37894;53.172;6.598;2023-07-31T09:41:56;3.75;;;1.65;;
51852;SDS011;37894;53.172;6.598;2023-07-31T09:44:37;4.32;;;2.47;;
51852;SDS011;37894;53.172;6.598;2023-07-31T09:47:05;2.25;;;1.15;;
51852;SDS011;37894;53.172;6.598;2023-07-31T09:49:31;2.35;;;1.30;;
51852;SDS011;37894;53.172;6.598;2023-07-31T09:51:56;5.18;;;1.25;;
51852;SDS011;37894;53.172;6.598;2023-07-31T09:54:22;2.80;;;1.20;;
51852;SDS011;37894;53.172;6.598;2023-07-31T09:56:48;4.05;;;1.05;;
51852;SDS011;37894;53.172;6.598;2023-07-31T09:59:15;2.65;;;1.20;;
51852;SDS011;37894;53.172;6.598;2023-07-31T10:01:42;4.10;;;0.90;;
51852;SDS011;37894;53.172;6.598;2023-07-31T10:04:10;2.00;;;0.90;;
51852;SDS011;37894;53.172;6.598;2023-07-31T10:06:36;1.85;;;0.82;;
51852;SDS011;37894;53.172;6.598;2023-07-31T10:09:11;2.83;;;0.77;;
51852;SDS011;37894;53.172;6.598;2023-07-31T10:11:47;1.40;;;0.80;;
51852;SDS011;37894;53.172;6.598;2023-07-31T10:14:18;1.58;;;0.70;;
51852;SDS011;37894;53.172;6.598;2023-07-31T10:16:45;5.10;;;1.80;;
51852;SDS011;37894;53.172;6.598;2023-07-31T10:19:11;2.50;;;1.10;;
51852;SDS011;37894;53.172;6.598;2023-07-31T10:21:37;1.33;;;0.70;;
51852;SDS011;37894;53.172;6.598;2023-07-31T10:24:06;2.63;;;0.88;;
51852;SDS011;37894;53.172;6.598;2023-07-31T10:26:32;2.83;;;0.70;;
51852;SDS011;37894;53.172;6.598;2023-07-31T10:28:58;1.55;;;0.70;;
51852;SDS011;37894;53.172;6.598;2023-07-31T10:31:25;2.40;;;0.70;;
51852;SDS011;37894;53.172;6.598;2023-07-31T10:33:56;1.00;;;0.60;;
51852;SDS011;37894;53.172;6.598;2023-07-31T10:36:24;4.47;;;0.90;;
51852;SDS011;37894;53.172;6.598;2023-07-31T10:38:50;3.47;;;0.70;;
51852;SDS011;37894;53.172;6.598;2023-07-31T10:41:17;1.48;;;0.60;;
51852;SDS011;37894;53.172;6.598;2023-07-31T10:43:43;0.98;;;0.60;;
51852;SDS011;37894;53.172;6.598;2023-07-31T10:46:12;1.67;;;0.70;;
51852;SDS011;37894;53.172;6.598;2023-07-31T10:48:39;1.55;;;0.50;;
51852;SDS011;37894;53.172;6.598;2023-07-31T10:51:15;0.98;;;0.40;;
51852;SDS011;37894;53.172;6.598;2023-07-31T10:53:46;1.08;;;0.65;;
51852;SDS011;37894;53.172;6.598;2023-07-31T10:56:11;2.15;;;0.50;;
51852;SDS011;37894;53.172;6.598;2023-07-31T11:01:05;2.40;;;0.80;;
51852;SDS011;37894;53.172;6.598;2023-07-31T11:03:41;0.75;;;0.63;;
51852;SDS011;37894;53.172;6.598;2023-07-31T11:06:17;1.95;;;0.68;;
51852;SDS011;37894;53.172;6.598;2023-07-31T11:11:11;0.60;;;0.52;;
51852;SDS011;37894;53.172;6.598;2023-07-31T11:13:42;2.40;;;0.73;;
51852;SDS011;37894;53.172;6.598;2023-07-31T11:16:15;1.52;;;0.90;;
51852;SDS011;37894;53.172;6.598;2023-07-31T11:18:43;2.70;;;0.70;;
51852;SDS011;37894;53.172;6.598;2023-07-31T11:21:13;3.67;;;0.88;;
51852;SDS011;37894;53.172;6.598;2023-07-31T11:23:39;4.90;;;0.80;;
51852;SDS011;37894;53.172;6.598;2023-07-31T11:26:05;14.13;;;1.50;;
51852;SDS011;37894;53.172;6.598;2023-07-31T11:28:32;1.17;;;0.70;;
51852;SDS011;37894;53.172;6.598;2023-07-31T11:30:59;8.90;;;1.17;;
51852;SDS011;37894;53.172;6.598;2023-07-31T11:33:25;2.90;;;0.70;;
51852;SDS011;37894;53.172;6.598;2023-07-31T11:35:51;1.95;;;0.80;;
51852;SDS011;37894;53.172;6.598;2023-07-31T11:38:24;1.17;;;0.68;;
51852;SDS011;37894;53.172;6.598;2023-07-31T11:40:54;2.10;;;0.75;;
51852;SDS011;37894;53.172;6.598;2023-07-31T11:43:22;1.75;;;1.00;;
51852;SDS011;37894;53.172;6.598;2023-07-31T11:45:49;1.33;;;0.80;;
51852;SDS011;37894;53.172;6.598;2023-07-31T11:48:20;3.40;;;1.00;;
51852;SDS011;37894;53.172;6.598;2023-07-31T11:50:52;1.73;;;0.80;;
51852;SDS011;37894;53.172;6.598;2023-07-31T11:53:21;1.52;;;1.00;;
51852;SDS011;37894;53.172;6.598;2023-07-31T11:55:57;2.95;;;1.00;;
51852;SDS011;37894;53.172;6.598;2023-07-31T11:58:24;3.35;;;1.00;;
51852;SDS011;37894;53.172;6.598;2023-07-31T12:00:50;3.05;;;1.00;;
51852;SDS011;37894;53.172;6.598;2023-07-31T12:03:16;2.47;;;0.95;;
51852;SDS011;37894;53.172;6.598;2023-07-31T12:05:43;2.80;;;1.15;;
51852;SDS011;37894;53.172;6.598;2023-07-31T12:08:10;1.95;;;1.10;;
51852;SDS011;37894;53.172;6.598;2023-07-31T12:10:39;2.15;;;0.90;;
51852;SDS011;37894;53.172;6.598;2023-07-31T12:13:09;5.07;;;1.17;;
51852;SDS011;37894;53.172;6.598;2023-07-31T12:15:44;4.22;;;1.08;;
51852;SDS011;37894;53.172;6.598;2023-07-31T12:18:11;3.40;;;1.30;;
51852;SDS011;37894;53.172;6.598;2023-07-31T12:20:42;3.80;;;1.20;;
51852;SDS011;37894;53.172;6.598;2023-07-31T12:23:17;4.03;;;1.73;;
51852;SDS011;37894;53.172;6.598;2023-07-31T12:25:59;2.42;;;1.50;;
51852;SDS011;37894;53.172;6.598;2023-07-31T12:28:25;3.55;;;1.30;;
51852;SDS011;37894;53.172;6.598;2023-07-31T12:30:51;3.72;;;1.40;;
51852;SDS011;37894;53.172;6.598;2023-07-31T12:33:21;2.78;;;1.50;;
51852;SDS011;37894;53.172;6.598;2023-07-31T12:35:47;2.80;;;1.13;;
51852;SDS011;37894;53.172;6.598;2023-07-31T12:38:13;4.72;;;1.48;;
51852;SDS011;37894;53.172;6.598;2023-07-31T12:40:39;2.13;;;1.17;;
51852;SDS011;37894;53.172;6.598;2023-07-31T12:43:06;4.60;;;1.27;;
51852;SDS011;37894;53.172;6.598;2023-07-31T12:45:33;3.55;;;1.52;;
51852;SDS011;37894;53.172;6.598;2023-07-31T12:47:59;2.75;;;1.30;;
51852;SDS011;37894;53.172;6.598;2023-07-31T12:50:25;5.53;;;1.67;;
51852;SDS011;37894;53.172;6.598;2023-07-31T12:52:52;3.63;;;1.77;;
51852;SDS011;37894;53.172;6.598;2023-07-31T12:55:18;4.35;;;1.88;;
51852;SDS011;37894;53.172;6.598;2023-07-31T12:57:44;5.53;;;2.28;;
51852;SDS011;37894;53.172;6.598;2023-07-31T13:00:10;6.05;;;2.20;;
51852;SDS011;37894;53.172;6.598;2023-07-31T13:02:37;8.18;;;2.28;;
51852;SDS011;37894;53.172;6.598;2023-07-31T13:05:03;9.82;;;2.20;;
51852;SDS011;37894;53.172;6.598;2023-07-31T13:07:29;6.05;;;2.13;;
51852;SDS011;37894;53.172;6.598;2023-07-31T13:09:55;4.82;;;2.08;;
51852;SDS011;37894;53.172;6.598;2023-07-31T13:12:21;7.00;;;2.45;;
51852;SDS011;37894;53.172;6.598;2023-07-31T13:14:47;6.03;;;2.42;;
51852;SDS011;37894;53.172;6.598;2023-07-31T13:17:12;8.95;;;2.88;;
51852;SDS011;37894;53.172;6.598;2023-07-31T13:19:38;7.95;;;2.80;;
51852;SDS011;37894;53.172;6.598;2023-07-31T13:22:04;8.32;;;2.72;;
51852;SDS011;37894;53.172;6.598;2023-07-31T13:24:29;9.45;;;2.90;;
51852;SDS011;37894;53.172;6.598;2023-07-31T13:26:56;9.25;;;3.20;;
51852;SDS011;37894;53.172;6.598;2023-07-31T13:29:21;7.05;;;2.70;;
51852;SDS011;37894;53.172;6.598;2023-07-31T13:31:47;10.02;;;3.13;;
51852;SDS011;37894;53.172;6.598;2023-07-31T13:34:13;12.30;;;3.97;;
51852;SDS011;37894;53.172;6.598;2023-07-31T13:36:39;9.07;;;3.42;;
51852;SDS011;37894;53.172;6.598;2023-07-31T13:39:05;10.60;;;3.47;;
51852;SDS011;37894;53.172;6.598;2023-07-31T13:41:31;14.98;;;3.83;;
51852;SDS011;37894;53.172;6.598;2023-07-31T13:43:56;10.60;;;3.28;;
51852;SDS011;37894;53.172;6.598;2023-07-31T13:46:22;9.10;;;3.20;;
51852;SDS011;37894;53.172;6.598;2023-07-31T13:48:48;7.10;;;3.22;;
51852;SDS011;37894;53.172;6.598;2023-07-31T13:51:14;11.23;;;3.55;;
51852;SDS011;37894;53.172;6.598;2023-07-31T13:53:39;5.72;;;3.10;;
51852;SDS011;37894;53.172;6.598;2023-07-31T13:56:05;10.10;;;3.40;;
51852;SDS011;37894;53.172;6.598;2023-07-31T13:58:31;8.63;;;3.13;;
51852;SDS011;37894;53.172;6.598;2023-07-31T14:00:57;8.77;;;3.47;;
51852;SDS011;37894;53.172;6.598;2023-07-31T14:03:23;11.48;;;4.15;;
51852;SDS011;37894;53.172;6.598;2023-07-31T14:05:48;9.68;;;3.00;;
51852;SDS011;37894;53.172;6.598;2023-07-31T14:08:14;7.03;;;3.17;;
51852;SDS011;37894;53.172;6.598;2023-07-31T14:10:40;6.97;;;3.00;;
51852;SDS011;37894;53.172;6.598;2023-07-31T14:13:05;7.90;;;3.05;;
51852;SDS011;37894;53.172;6.598;2023-07-31T14:15:31;9.55;;;3.05;;
51852;SDS011;37894;53.172;6.598;2023-07-31T14:17:57;7.40;;;3.30;;
51852;SDS011;37894;53.172;6.598;2023-07-31T14:20:23;8.85;;;3.20;;
51852;SDS011;37894;53.172;6.598;2023-07-31T14:22:48;8.52;;;3.08;;
51852;SDS011;37894;53.172;6.598;2023-07-31T14:25:14;8.25;;;3.60;;
51852;SDS011;37894;53.172;6.598;2023-07-31T14:27:40;6.15;;;2.97;;
51852;SDS011;37894;53.172;6.598;2023-07-31T14:30:06;9.98;;;3.40;;
51852;SDS011;37894;53.172;6.598;2023-07-31T14:32:32;5.90;;;2.95;;
51852;SDS011;37894;53.172;6.598;2023-07-31T14:34:58;9.18;;;3.50;;
51852;SDS011;37894;53.172;6.598;2023-07-31T14:37:25;9.20;;;3.78;;
51852;SDS011;37894;53.172;6.598;2023-07-31T14:39:52;6.90;;;2.90;;
51852;SDS011;37894;53.172;6.598;2023-07-31T14:42:18;11.25;;;3.80;;
51852;SDS011;37894;53.172;6.598;2023-07-31T14:44:44;10.70;;;3.00;;
51852;SDS011;37894;53.172;6.598;2023-07-31T14:47:15;10.50;;;3.50;;
51852;SDS011;37894;53.172;6.598;2023-07-31T14:49:40;12.15;;;4.05;;
51852;SDS011;37894;53.172;6.598;2023-07-31T14:52:06;10.27;;;3.13;;
51852;SDS011;37894;53.172;6.598;2023-07-31T14:54:32;7.88;;;3.15;;